createdAt,value
2018-01-12T00:00:04.370Z,1018.23
2018-01-12T00:01:04.389Z,1018.26
2018-01-12T00:02:04.396Z,1018.29
2018-01-12T00:03:04.412Z,1018.27
2018-01-12T00:04:04.427Z,1018.23
2018-01-12T00:06:04.457Z,1018.28
2018-01-12T00:07:04.471Z,1018.3
2018-01-12T00:08:04.487Z,1018.27
2018-01-12T00:09:04.511Z,1018.25
2018-01-12T00:10:04.514Z,1018.28
2018-01-12T00:11:04.530Z,1018.26
2018-01-12T00:12:04.545Z,1018.29
2018-01-12T00:13:04.565Z,1018.31
2018-01-12T00:14:04.579Z,1018.34
2018-01-12T00:15:04.588Z,1018.33
2018-01-12T00:16:04.607Z,1018.32
2018-01-12T00:17:04.618Z,1018.34
2018-01-12T00:18:04.640Z,1018.33
2018-01-12T00:19:04.649Z,1018.31
2018-01-12T00:20:04.694Z,1018.29
2018-01-12T00:22:04.699Z,1018.31
2018-01-12T00:23:04.714Z,1018.28
2018-01-12T00:24:04.723Z,1018.28
2018-01-12T00:25:04.737Z,1018.26
2018-01-12T00:26:04.751Z,1018.29
2018-01-12T00:27:04.767Z,1018.21
2018-01-12T00:28:04.788Z,1018.24
2018-01-12T00:29:04.795Z,1018.28
2018-01-12T00:30:04.811Z,1018.25
2018-01-12T00:31:04.825Z,1018.24
2018-01-12T00:32:04.846Z,1018.29
2018-01-12T00:33:04.861Z,1018.34
2018-01-12T00:34:04.869Z,1018.34
2018-01-12T00:35:04.891Z,1018.45
2018-01-12T00:36:04.899Z,1018.4
2018-01-12T00:38:04.936Z,1018.45
2018-01-12T00:39:04.944Z,1018.45
2018-01-12T00:40:04.958Z,1018.42
2018-01-12T00:41:04.973Z,1018.5
2018-01-12T00:42:04.996Z,1018.53
2018-01-12T00:43:05.002Z,1018.58
2018-01-12T00:44:05.018Z,1018.61
2018-01-12T00:45:05.133Z,1018.61
2018-01-12T00:46:05.048Z,1018.59
2018-01-12T00:47:05.070Z,1018.65
2018-01-12T00:48:05.078Z,1018.64
2018-01-12T00:49:05.094Z,1018.66
2018-01-12T00:50:05.110Z,1018.69
2018-01-12T00:51:05.229Z,1018.69
2018-01-12T00:53:05.152Z,1018.7
2018-01-12T00:54:05.167Z,1018.75
2018-01-12T00:55:05.185Z,1018.74
2018-01-12T00:56:05.197Z,1018.72
2018-01-12T00:57:05.218Z,1018.75
2018-01-12T00:58:05.234Z,1018.74
2018-01-12T00:59:05.247Z,1018.73
2018-01-12T01:00:05.263Z,1018.71
2018-01-12T01:01:05.271Z,1018.74
2018-01-12T01:02:05.293Z,1018.78
2018-01-12T01:03:05.307Z,1018.73
2018-01-12T01:04:05.317Z,1018.76
2018-01-12T01:05:05.332Z,1018.72
2018-01-12T01:06:05.346Z,1018.76
2018-01-12T01:07:05.366Z,1018.79
2018-01-12T01:08:05.383Z,1018.78
2018-01-12T01:09:05.392Z,1018.79
2018-01-12T01:10:05.405Z,1018.79
2018-01-12T01:11:05.420Z,1018.84
2018-01-12T01:12:05.541Z,1018.84
2018-01-12T01:13:05.452Z,1018.83
2018-01-12T01:14:05.474Z,1018.83
2018-01-12T01:15:05.486Z,1018.84
2018-01-12T01:16:05.493Z,1018.83
2018-01-12T01:17:05.508Z,1018.87
2018-01-12T01:18:05.524Z,1018.89
2018-01-12T01:19:05.540Z,1018.87
2018-01-12T01:20:05.554Z,1018.84
2018-01-12T01:21:05.568Z,1018.82
2018-01-12T01:22:05.583Z,1018.86
2018-01-12T01:23:05.596Z,1018.92
2018-01-12T01:25:05.631Z,1018.87
2018-01-12T01:26:05.641Z,1018.87
2018-01-12T01:27:05.656Z,1018.88
2018-01-12T01:28:05.673Z,1018.89
2018-01-12T01:29:05.685Z,1018.88
2018-01-12T01:30:05.708Z,1018.87
2018-01-12T01:31:05.721Z,1018.88
2018-01-12T01:32:05.731Z,1018.93
2018-01-12T01:33:05.745Z,1018.94
2018-01-12T01:34:05.764Z,1018.92
2018-01-12T01:35:05.780Z,1018.94
2018-01-12T01:36:05.795Z,1018.93
2018-01-12T01:37:05.803Z,1018.99
2018-01-12T01:38:05.817Z,1018.99
2018-01-12T01:39:05.840Z,1019.04
2018-01-12T01:41:05.863Z,1019.02
2018-01-12T01:42:05.884Z,1019.03
2018-01-12T01:43:05.903Z,1019.04
2018-01-12T01:44:06.008Z,1019.09
2018-01-12T01:45:05.922Z,1019.08
2018-01-12T01:46:05.943Z,1019.08
2018-01-12T01:47:05.951Z,1019.02
2018-01-12T01:48:05.972Z,1019.02
2018-01-12T01:49:05.981Z,1019.03
2018-01-12T01:50:05.996Z,1019.06
2018-01-12T01:51:06.011Z,1019.04
2018-01-12T01:52:06.027Z,1019.05
2018-01-12T01:53:06.042Z,1019.08
2018-01-12T01:54:06.055Z,1019.07
2018-01-12T01:55:06.076Z,1019.11
2018-01-12T01:57:06.106Z,1019.08
2018-01-12T01:58:06.115Z,1019.1
2018-01-12T01:59:06.129Z,1019.11
2018-01-12T02:00:06.143Z,1019.15
2018-01-12T02:01:06.158Z,1019.15
2018-01-12T02:02:06.174Z,1019.13
2018-01-12T02:03:06.188Z,1019.16
2018-01-12T02:04:06.202Z,1019.14
2018-01-12T02:05:06.221Z,1019.19
2018-01-12T02:06:06.240Z,1019.22
2018-01-12T02:07:06.247Z,1019.21
2018-01-12T02:08:06.270Z,1019.19
2018-01-12T02:09:06.284Z,1019.22
2018-01-12T02:10:06.292Z,1019.2
2018-01-12T02:11:06.313Z,1019.21
2018-01-12T02:13:06.336Z,1019.3
2018-01-12T02:14:06.358Z,1019.25
2018-01-12T02:15:06.366Z,1019.3
2018-01-12T02:16:06.381Z,1019.25
2018-01-12T02:17:06.395Z,1019.24
2018-01-12T02:18:06.409Z,1019.29
2018-01-12T02:19:06.431Z,1019.31
2018-01-12T02:20:06.441Z,1019.28
2018-01-12T02:21:06.455Z,1019.32
2018-01-12T02:22:06.476Z,1019.33
2018-01-12T02:23:06.485Z,1019.32
2018-01-12T02:24:06.500Z,1019.32
2018-01-12T02:25:06.521Z,1019.33
2018-01-12T02:26:06.536Z,1019.35
2018-01-12T02:28:06.559Z,1019.39
2018-01-12T02:29:06.672Z,1019.37
2018-01-12T02:30:06.588Z,1019.38
2018-01-12T02:31:06.608Z,1019.37
2018-01-12T02:32:06.617Z,1019.38
2018-01-12T02:33:06.639Z,1019.39
2018-01-12T02:34:06.646Z,1019.44
2018-01-12T02:35:06.670Z,1019.42
2018-01-12T02:36:06.683Z,1019.43
2018-01-12T02:37:06.696Z,1019.48
2018-01-12T02:38:06.713Z,1019.44
2018-01-12T02:39:06.728Z,1019.46
2018-01-12T02:40:06.734Z,1019.43
2018-01-12T02:41:06.757Z,1019.49
2018-01-12T02:42:06.768Z,1019.46
2018-01-12T02:43:06.785Z,1019.47
2018-01-12T02:44:06.799Z,1019.51
2018-01-12T02:45:06.814Z,1019.51
2018-01-12T02:46:06.823Z,1019.53
2018-01-12T02:47:06.844Z,1019.54
2018-01-12T02:48:06.853Z,1019.6
2018-01-12T02:49:06.867Z,1019.55
2018-01-12T02:50:06.883Z,1019.55
2018-01-12T02:51:06.902Z,1019.56
2018-01-12T02:52:06.923Z,1019.57
2018-01-12T02:53:06.925Z,1019.58
2018-01-12T02:54:06.941Z,1019.61
2018-01-12T02:55:06.955Z,1019.64
2018-01-12T02:56:06.970Z,1019.63
2018-01-12T02:57:06.984Z,1019.61
2018-01-12T02:58:06.999Z,1019.61
2018-01-12T03:00:07.035Z,1019.64
2018-01-12T03:01:07.049Z,1019.68
2018-01-12T03:02:07.058Z,1019.73
2018-01-12T03:03:07.072Z,1019.74
2018-01-12T03:04:07.094Z,1019.73
2018-01-12T03:05:07.109Z,1019.74
2018-01-12T03:06:07.116Z,1019.74
2018-01-12T03:07:07.134Z,1019.77
2018-01-12T03:08:07.145Z,1019.78
2018-01-12T03:09:07.166Z,1019.79
2018-01-12T03:10:07.175Z,1019.78
2018-01-12T03:11:07.192Z,1019.78
2018-01-12T03:12:07.211Z,1019.8
2018-01-12T03:13:07.217Z,1019.77
2018-01-12T03:14:07.233Z,1019.81
2018-01-12T03:16:07.264Z,1019.77
2018-01-12T03:17:07.276Z,1019.8
2018-01-12T03:18:07.292Z,1019.82
2018-01-12T03:19:07.309Z,1019.85
2018-01-12T03:20:07.322Z,1019.85
2018-01-12T03:21:07.335Z,1019.86
2018-01-12T03:22:07.357Z,1019.88
2018-01-12T03:23:07.372Z,1019.91
2018-01-12T03:24:07.386Z,1019.88
2018-01-12T03:25:07.394Z,1019.86
2018-01-12T03:26:07.410Z,1019.87
2018-01-12T03:27:07.429Z,1019.88
2018-01-12T03:28:07.444Z,1019.86
2018-01-12T03:29:07.459Z,1019.91
2018-01-12T03:30:07.474Z,1019.9
2018-01-12T03:32:07.497Z,1019.9
2018-01-12T03:33:07.511Z,1019.9
2018-01-12T03:34:07.526Z,1019.96
2018-01-12T03:35:07.540Z,1019.93
2018-01-12T03:36:07.555Z,1019.98
2018-01-12T03:37:07.569Z,1019.97
2018-01-12T03:38:07.590Z,1019.99
2018-01-12T03:39:07.598Z,1019.95
2018-01-12T03:40:07.612Z,1019.96
2018-01-12T03:41:07.634Z,1019.92
2018-01-12T03:42:07.641Z,1019.94
2018-01-12T03:43:07.656Z,1019.92
2018-01-12T03:44:07.672Z,1019.94
2018-01-12T03:45:07.685Z,1020.01
2018-01-12T03:46:07.707Z,1019.98
2018-01-12T03:48:07.735Z,1019.99
2018-01-12T03:49:07.744Z,1019.99
2018-01-12T03:50:07.759Z,1019.94
2018-01-12T03:51:07.778Z,1019.98
2018-01-12T03:52:07.795Z,1020.03
2018-01-12T03:53:07.802Z,1020.03
2018-01-12T03:54:07.822Z,1020.08
2018-01-12T03:55:07.839Z,1020.09
2018-01-12T03:56:07.852Z,1020.11
2018-01-12T03:57:07.860Z,1020.09
2018-01-12T03:58:07.882Z,1020.13
2018-01-12T03:59:07.890Z,1020.1
2018-01-12T04:00:07.904Z,1020.12
2018-01-12T04:01:07.926Z,1020.1
2018-01-12T04:03:07.948Z,1020.15
2018-01-12T04:04:07.962Z,1020.15
2018-01-12T04:05:07.984Z,1020.17
2018-01-12T04:06:07.991Z,1020.12
2018-01-12T04:07:08.006Z,1020.11
2018-01-12T04:08:08.021Z,1020.1
2018-01-12T04:09:08.036Z,1020.16
2018-01-12T04:10:08.056Z,1020.18
2018-01-12T04:11:08.064Z,1020.21
2018-01-12T04:12:08.086Z,1020.25
2018-01-12T04:13:08.100Z,1020.23
2018-01-12T04:14:08.109Z,1020.28
2018-01-12T04:15:08.129Z,1020.26
2018-01-12T04:16:08.136Z,1020.26
2018-01-12T04:17:08.154Z,1020.22
2018-01-12T04:18:08.172Z,1020.23
2018-01-12T04:19:08.181Z,1020.24
2018-01-12T04:20:08.195Z,1020.27
2018-01-12T04:21:08.232Z,1020.27
2018-01-12T04:22:08.224Z,1020.28
2018-01-12T04:23:08.246Z,1020.25
2018-01-12T04:24:08.253Z,1020.31
2018-01-12T04:25:08.268Z,1020.28
2018-01-12T04:26:08.281Z,1020.31
2018-01-12T04:27:08.297Z,1020.28
2018-01-12T04:28:08.316Z,1020.34
2018-01-12T04:29:08.333Z,1020.3
2018-01-12T04:30:08.340Z,1020.31
2018-01-12T04:31:08.365Z,1020.33
2018-01-12T04:32:08.370Z,1020.32
2018-01-12T04:33:08.390Z,1020.31
2018-01-12T04:35:08.419Z,1020.31
2018-01-12T04:36:08.434Z,1020.29
2018-01-12T04:37:08.440Z,1020.33
2018-01-12T04:38:08.457Z,1020.32
2018-01-12T04:39:08.482Z,1020.36
2018-01-12T04:40:08.485Z,1020.34
2018-01-12T04:41:08.500Z,1020.33
2018-01-12T04:42:08.516Z,1020.34
2018-01-12T04:43:08.529Z,1020.34
2018-01-12T04:44:08.549Z,1020.29
2018-01-12T04:45:08.561Z,1020.34
2018-01-12T04:46:08.579Z,1020.33
2018-01-12T04:47:08.589Z,1020.35
2018-01-12T04:48:08.601Z,1020.37
2018-01-12T04:49:08.617Z,1020.37
2018-01-12T04:51:08.654Z,1020.35
2018-01-12T04:52:08.659Z,1020.36
2018-01-12T04:53:08.679Z,1020.34
2018-01-12T04:54:08.688Z,1020.35
2018-01-12T04:55:08.703Z,1020.41
2018-01-12T04:56:08.716Z,1020.39
2018-01-12T04:57:08.732Z,1020.41
2018-01-12T04:58:08.753Z,1020.42
2018-01-12T04:59:08.767Z,1020.36
2018-01-12T05:00:08.775Z,1020.39
2018-01-12T05:01:08.797Z,1020.37
2018-01-12T05:02:08.811Z,1020.35
2018-01-12T05:03:08.825Z,1020.36
2018-01-12T05:04:08.835Z,1020.44
2018-01-12T05:05:08.848Z,1020.44
2018-01-12T05:07:08.883Z,1020.49
2018-01-12T05:08:08.892Z,1020.46
2018-01-12T05:09:08.912Z,1020.46
2018-01-12T05:10:08.926Z,1020.45
2018-01-12T05:11:08.941Z,1020.5
2018-01-12T05:12:08.949Z,1020.49
2018-01-12T05:13:08.971Z,1020.48
2018-01-12T05:14:09.019Z,1020.51
2018-01-12T05:15:08.993Z,1020.56
2018-01-12T05:16:09.007Z,1020.58
2018-01-12T05:17:09.027Z,1020.57
2018-01-12T05:18:09.036Z,1020.56
2018-01-12T05:19:09.056Z,1020.58
2018-01-12T05:20:09.071Z,1020.61
2018-01-12T05:21:09.079Z,1020.61
2018-01-12T05:23:09.110Z,1020.69
2018-01-12T05:24:09.122Z,1020.71
2018-01-12T05:25:09.136Z,1020.69
2018-01-12T05:26:09.156Z,1020.71
2018-01-12T05:27:09.165Z,1020.68
2018-01-12T05:28:09.179Z,1020.68
2018-01-12T05:29:09.200Z,1020.7
2018-01-12T05:30:09.209Z,1020.71
2018-01-12T05:31:09.224Z,1020.7
2018-01-12T05:32:09.243Z,1020.69
2018-01-12T05:33:09.252Z,1020.7
2018-01-12T05:34:09.267Z,1020.7
2018-01-12T05:35:09.286Z,1020.7
2018-01-12T05:36:09.294Z,1020.68
2018-01-12T05:38:09.331Z,1020.71
2018-01-12T05:39:09.438Z,1020.7
2018-01-12T05:40:09.365Z,1020.69
2018-01-12T05:41:09.368Z,1020.72
2018-01-12T05:42:09.382Z,1020.69
2018-01-12T05:43:09.403Z,1020.74
2018-01-12T05:44:09.418Z,1020.78
2018-01-12T05:45:09.425Z,1020.79
2018-01-12T05:46:09.444Z,1020.76
2018-01-12T05:47:09.454Z,1020.82
2018-01-12T05:48:09.467Z,1020.81
2018-01-12T05:49:09.482Z,1020.85
2018-01-12T05:50:09.503Z,1020.83
2018-01-12T05:51:09.511Z,1020.87
2018-01-12T05:52:09.525Z,1020.85
2018-01-12T05:53:09.541Z,1020.82
2018-01-12T05:54:09.553Z,1020.81
2018-01-12T05:55:09.574Z,1020.81
2018-01-12T05:56:09.583Z,1020.85
2018-01-12T05:57:09.595Z,1020.86
2018-01-12T05:58:09.613Z,1020.86
2018-01-12T05:59:09.624Z,1020.86
2018-01-12T06:00:09.645Z,1020.9
2018-01-12T06:01:09.660Z,1020.93
2018-01-12T06:02:09.675Z,1020.95
2018-01-12T06:03:09.690Z,1020.96
2018-01-12T06:04:09.704Z,1021
2018-01-12T06:05:09.712Z,1020.99
2018-01-12T06:06:09.731Z,1021.01
2018-01-12T06:07:09.840Z,1021.03
2018-01-12T06:08:09.754Z,1021.05
2018-01-12T06:10:09.790Z,1021.05
2018-01-12T06:11:09.798Z,1021.05
2018-01-12T06:12:09.814Z,1021.09
2018-01-12T06:13:09.825Z,1021.1
2018-01-12T06:14:09.847Z,1021.06
2018-01-12T06:15:09.855Z,1021.05
2018-01-12T06:16:09.869Z,1021.06
2018-01-12T06:17:09.890Z,1021.1
2018-01-12T06:18:09.897Z,1021.12
2018-01-12T06:19:09.910Z,1021.14
2018-01-12T06:20:09.925Z,1021.15
2018-01-12T06:21:09.963Z,1021.14
2018-01-12T06:22:09.953Z,1021.2
2018-01-12T06:23:10.001Z,1021.2
2018-01-12T06:24:09.982Z,1021.18
2018-01-12T06:26:10.023Z,1021.28
2018-01-12T06:27:10.032Z,1021.26
2018-01-12T06:28:10.039Z,1021.24
2018-01-12T06:29:10.054Z,1021.24
2018-01-12T06:30:10.067Z,1021.28
2018-01-12T06:31:10.082Z,1021.35
2018-01-12T06:32:10.096Z,1021.37
2018-01-12T06:33:10.112Z,1021.32
2018-01-12T06:34:10.125Z,1021.38
2018-01-12T06:35:10.145Z,1021.42
2018-01-12T06:36:10.160Z,1021.47
2018-01-12T06:37:10.168Z,1021.46
2018-01-12T06:38:10.189Z,1021.43
2018-01-12T06:39:10.196Z,1021.48
2018-01-12T06:40:10.211Z,1021.43
2018-01-12T06:42:10.239Z,1021.47
2018-01-12T06:43:10.253Z,1021.46
2018-01-12T06:44:10.267Z,1021.48
2018-01-12T06:45:10.280Z,1021.51
2018-01-12T06:46:10.296Z,1021.51
2018-01-12T06:47:10.317Z,1021.53
2018-01-12T06:48:10.330Z,1021.51
2018-01-12T06:49:10.337Z,1021.51
2018-01-12T06:50:10.359Z,1021.52
2018-01-12T06:51:10.368Z,1021.57
2018-01-12T06:52:10.386Z,1021.54
2018-01-12T06:53:10.396Z,1021.54
2018-01-12T06:54:10.410Z,1021.56
2018-01-12T06:55:10.431Z,1021.56
2018-01-12T06:56:10.437Z,1021.55
2018-01-12T06:58:10.466Z,1021.61
2018-01-12T06:59:10.480Z,1021.64
2018-01-12T07:00:10.495Z,1021.63
2018-01-12T07:01:10.509Z,1021.62
2018-01-12T07:02:10.524Z,1021.65
2018-01-12T07:03:10.544Z,1021.68
2018-01-12T07:04:10.552Z,1021.64
2018-01-12T07:05:10.572Z,1021.65
2018-01-12T07:06:10.580Z,1021.65
2018-01-12T07:07:10.600Z,1021.67
2018-01-12T07:08:10.613Z,1021.68
2018-01-12T07:09:10.630Z,1021.74
2018-01-12T07:10:10.644Z,1021.75
2018-01-12T07:11:10.659Z,1021.73
2018-01-12T07:13:10.680Z,1021.78
2018-01-12T07:14:10.700Z,1021.81
2018-01-12T07:15:10.710Z,1021.86
2018-01-12T07:16:10.730Z,1021.84
2018-01-12T07:17:10.737Z,1021.83
2018-01-12T07:18:10.757Z,1021.87
2018-01-12T07:19:10.773Z,1021.91
2018-01-12T07:20:10.780Z,1021.93
2018-01-12T07:21:10.800Z,1021.96
2018-01-12T07:22:10.814Z,1021.96
2018-01-12T07:23:10.829Z,1022.04
2018-01-12T07:24:10.842Z,1021.99
2018-01-12T07:25:10.850Z,1021.97
2018-01-12T07:26:10.864Z,1022.07
2018-01-12T07:27:10.979Z,1022.04
2018-01-12T07:28:10.894Z,1022.04
2018-01-12T07:29:10.907Z,1022.03
2018-01-12T07:30:10.928Z,1022.06
2018-01-12T07:31:10.936Z,1022.04
2018-01-12T07:32:10.950Z,1022.05
2018-01-12T07:33:10.970Z,1022.03
2018-01-12T07:34:10.979Z,1022.07
2018-01-12T07:35:11.000Z,1022.08
2018-01-12T07:36:11.013Z,1022.06
2018-01-12T07:37:11.026Z,1022.09
2018-01-12T07:38:11.035Z,1022.11
2018-01-12T07:39:11.049Z,1022.06
2018-01-12T07:40:11.062Z,1022.11
2018-01-12T07:41:11.076Z,1022.11
2018-01-12T07:42:11.091Z,1022.18
2018-01-12T07:43:11.106Z,1022.18
2018-01-12T07:45:11.136Z,1022.23
2018-01-12T07:46:11.149Z,1022.25
2018-01-12T07:47:11.163Z,1022.22
2018-01-12T07:48:11.188Z,1022.23
2018-01-12T07:49:11.197Z,1022.23
2018-01-12T07:50:11.205Z,1022.23
2018-01-12T07:51:11.218Z,1022.21
2018-01-12T07:52:11.239Z,1022.26
2018-01-12T07:53:11.249Z,1022.26
2018-01-12T07:54:11.262Z,1022.26
2018-01-12T07:55:11.282Z,1022.26
2018-01-12T07:56:11.298Z,1022.27
2018-01-12T07:57:11.304Z,1022.28
2018-01-12T07:58:11.326Z,1022.28
2018-01-12T07:59:11.336Z,1022.29
2018-01-12T08:01:11.368Z,1022.33
2018-01-12T08:02:11.376Z,1022.34
2018-01-12T08:03:11.397Z,1022.33
2018-01-12T08:04:11.404Z,1022.36
2018-01-12T08:05:11.417Z,1022.33
2018-01-12T08:06:11.438Z,1022.31
2018-01-12T08:07:11.446Z,1022.35
2018-01-12T08:08:11.461Z,1022.3
2018-01-12T08:09:11.481Z,1022.3
2018-01-12T08:10:11.499Z,1022.33
2018-01-12T08:11:11.505Z,1022.37
2018-01-12T08:12:11.526Z,1022.38
2018-01-12T08:13:11.538Z,1022.41
2018-01-12T08:14:11.552Z,1022.39
2018-01-12T08:15:11.563Z,1022.4
2018-01-12T08:17:11.597Z,1022.41
2018-01-12T08:18:11.603Z,1022.45
2018-01-12T08:19:11.666Z,1022.43
2018-01-12T08:20:11.632Z,1022.46
2018-01-12T08:21:11.646Z,1022.45
2018-01-12T08:22:11.660Z,1022.48
2018-01-12T08:23:11.682Z,1022.5
2018-01-12T08:24:11.694Z,1022.49
2018-01-12T08:25:11.702Z,1022.51
2018-01-12T08:26:11.717Z,1022.54
2018-01-12T08:27:11.732Z,1022.54
2018-01-12T08:28:11.752Z,1022.59
2018-01-12T08:29:11.770Z,1022.62
2018-01-12T08:30:11.781Z,1022.61
2018-01-12T08:31:11.790Z,1022.63
2018-01-12T08:33:11.819Z,1022.67
2018-01-12T08:34:11.842Z,1022.66
2018-01-12T08:35:11.853Z,1022.68
2018-01-12T08:36:11.867Z,1022.72
2018-01-12T08:37:11.875Z,1022.68
2018-01-12T08:38:11.898Z,1022.72
2018-01-12T08:39:11.911Z,1022.75
2018-01-12T08:40:11.925Z,1022.7
2018-01-12T08:41:11.933Z,1022.7
2018-01-12T08:42:11.946Z,1022.74
2018-01-12T08:43:11.966Z,1022.7
2018-01-12T08:44:11.982Z,1022.67
2018-01-12T08:45:11.990Z,1022.67
2018-01-12T08:46:12.005Z,1022.7
2018-01-12T08:48:12.034Z,1022.66
2018-01-12T08:49:12.047Z,1022.7
2018-01-12T08:50:12.062Z,1022.73
2018-01-12T08:51:12.079Z,1022.77
2018-01-12T08:52:12.097Z,1022.75
2018-01-12T08:53:12.111Z,1022.78
2018-01-12T08:54:12.125Z,1022.73
2018-01-12T08:55:12.134Z,1022.76
2018-01-12T08:56:12.157Z,1022.77
2018-01-12T08:57:12.162Z,1022.79
2018-01-12T08:58:12.178Z,1022.81
2018-01-12T08:59:12.191Z,1022.84
2018-01-12T09:00:12.212Z,1022.81
2018-01-12T09:01:12.220Z,1022.83
2018-01-12T09:02:12.244Z,1022.81
2018-01-12T09:03:12.257Z,1022.88
2018-01-12T09:04:12.268Z,1022.88
2018-01-12T09:05:12.278Z,1022.88
2018-01-12T09:06:12.292Z,1022.98
2018-01-12T09:07:12.305Z,1022.97
2018-01-12T09:08:12.320Z,1022.96
2018-01-12T09:09:12.335Z,1022.92
2018-01-12T09:10:12.350Z,1022.88
2018-01-12T09:11:12.369Z,1022.89
2018-01-12T09:12:12.387Z,1022.93
2018-01-12T09:13:12.392Z,1022.94
2018-01-12T09:14:12.408Z,1022.96
2018-01-12T09:15:12.427Z,1022.94
2018-01-12T09:16:12.436Z,1022.96
2018-01-12T09:17:12.461Z,1022.98
2018-01-12T09:18:12.471Z,1023
2018-01-12T09:20:12.502Z,1023.07
2018-01-12T09:21:12.508Z,1023.09
2018-01-12T09:22:12.528Z,1023.04
2018-01-12T09:23:12.537Z,1023.07
2018-01-12T09:24:12.551Z,1023.1
2018-01-12T09:25:12.572Z,1023.1
2018-01-12T09:26:12.579Z,1023.11
2018-01-12T09:27:12.601Z,1023.1
2018-01-12T09:28:12.615Z,1023.13
2018-01-12T09:29:12.629Z,1023.09
2018-01-12T09:30:12.644Z,1023.11
2018-01-12T09:31:12.658Z,1023.1
2018-01-12T09:32:12.674Z,1023.14
2018-01-12T09:33:12.680Z,1023.13
2018-01-12T09:34:12.695Z,1023.09
2018-01-12T09:36:12.723Z,1023.12
2018-01-12T09:37:12.737Z,1023.16
2018-01-12T09:38:12.827Z,1023.14
2018-01-12T09:39:12.773Z,1023.22
2018-01-12T09:40:12.787Z,1023.16
2018-01-12T09:41:12.800Z,1023.21
2018-01-12T09:42:12.815Z,1023.25
2018-01-12T09:43:12.825Z,1023.19
2018-01-12T09:44:12.838Z,1023.26
2018-01-12T09:45:12.853Z,1023.22
2018-01-12T09:46:12.867Z,1023.26
2018-01-12T09:47:12.882Z,1023.25
2018-01-12T09:48:13.003Z,1023.26
2018-01-12T09:49:12.910Z,1023.27
2018-01-12T09:50:12.931Z,1023.26
2018-01-12T09:52:12.959Z,1023.3
2018-01-12T09:53:12.969Z,1023.29
2018-01-12T09:54:12.990Z,1023.28
2018-01-12T09:55:12.996Z,1023.3
2018-01-12T09:56:13.011Z,1023.3
2018-01-12T09:57:13.027Z,1023.34
2018-01-12T09:58:13.040Z,1023.33
2018-01-12T09:59:13.054Z,1023.28
2018-01-12T10:00:13.071Z,1023.33
2018-01-12T10:01:13.083Z,1023.38
2018-01-12T10:02:13.096Z,1023.32
2018-01-12T10:03:13.119Z,1023.36
2018-01-12T10:04:13.127Z,1023.36
2018-01-12T10:05:13.141Z,1023.34
2018-01-12T10:06:13.161Z,1023.35
2018-01-12T10:08:13.183Z,1023.37
2018-01-12T10:09:13.200Z,1023.33
2018-01-12T10:10:13.218Z,1023.33
2018-01-12T10:11:13.233Z,1023.35
2018-01-12T10:12:13.242Z,1023.35
2018-01-12T10:13:13.262Z,1023.35
2018-01-12T10:14:13.276Z,1023.36
2018-01-12T10:15:13.290Z,1023.37
2018-01-12T10:16:13.305Z,1023.35
2018-01-12T10:17:13.319Z,1023.38
2018-01-12T10:18:13.327Z,1023.37
2018-01-12T10:19:13.341Z,1023.33
2018-01-12T10:20:13.363Z,1023.35
2018-01-12T10:21:13.377Z,1023.36
2018-01-12T10:23:13.400Z,1023.37
2018-01-12T10:24:13.420Z,1023.36
2018-01-12T10:25:13.428Z,1023.3
2018-01-12T10:26:13.489Z,1023.36
2018-01-12T10:27:13.458Z,1023.32
2018-01-12T10:28:13.472Z,1023.36
2018-01-12T10:29:13.485Z,1023.39
2018-01-12T10:30:13.507Z,1023.38
2018-01-12T10:31:13.514Z,1023.4
2018-01-12T10:32:13.536Z,1023.41
2018-01-12T10:33:13.543Z,1023.37
2018-01-12T10:34:13.565Z,1023.39
2018-01-12T10:35:13.572Z,1023.42
2018-01-12T10:36:13.592Z,1023.41
2018-01-12T10:37:13.600Z,1023.42
2018-01-12T10:38:13.617Z,1023.45
2018-01-12T10:39:13.630Z,1023.43
2018-01-12T10:40:13.645Z,1023.48
2018-01-12T10:41:13.659Z,1023.45
2018-01-12T10:42:13.673Z,1023.52
2018-01-12T10:43:13.687Z,1023.49
2018-01-12T10:44:13.702Z,1023.51
2018-01-12T10:45:13.718Z,1023.53
2018-01-12T10:46:13.730Z,1023.52
2018-01-12T10:47:13.747Z,1023.54
2018-01-12T10:48:13.761Z,1023.54
2018-01-12T10:49:13.775Z,1023.52
2018-01-12T10:50:13.796Z,1023.51
2018-01-12T10:51:13.804Z,1023.56
2018-01-12T10:52:13.826Z,1023.55
2018-01-12T10:53:13.833Z,1023.57
2018-01-12T10:55:13.862Z,1023.6
2018-01-12T10:56:13.883Z,1023.58
2018-01-12T10:57:13.896Z,1023.62
2018-01-12T10:58:13.905Z,1023.66
2018-01-12T10:59:13.919Z,1023.6
2018-01-12T11:00:13.935Z,1023.65
2018-01-12T11:01:13.948Z,1023.64
2018-01-12T11:02:13.963Z,1023.68
2018-01-12T11:03:13.978Z,1023.67
2018-01-12T11:04:13.991Z,1023.65
2018-01-12T11:05:14.012Z,1023.66
2018-01-12T11:06:14.027Z,1023.72
2018-01-12T11:07:14.037Z,1023.71
2018-01-12T11:08:14.057Z,1023.69
2018-01-12T11:09:14.065Z,1023.72
2018-01-12T11:11:14.094Z,1023.73
2018-01-12T11:12:14.115Z,1023.71
2018-01-12T11:13:14.129Z,1023.77
2018-01-12T11:14:14.138Z,1023.72
2018-01-12T11:15:14.158Z,1023.73
2018-01-12T11:16:14.172Z,1023.77
2018-01-12T11:17:14.187Z,1023.71
2018-01-12T11:18:14.195Z,1023.76
2018-01-12T11:19:14.211Z,1023.72
2018-01-12T11:20:14.234Z,1023.68
2018-01-12T11:21:14.238Z,1023.7
2018-01-12T11:22:14.264Z,1023.71
2018-01-12T11:23:14.266Z,1023.71
2018-01-12T11:24:14.281Z,1023.67
2018-01-12T11:25:14.296Z,1023.77
2018-01-12T11:27:14.332Z,1023.74
2018-01-12T11:28:14.346Z,1023.7
2018-01-12T11:29:14.354Z,1023.73
2018-01-12T11:30:14.368Z,1023.71
2018-01-12T11:31:14.383Z,1023.67
2018-01-12T11:32:14.404Z,1023.71
2018-01-12T11:33:14.414Z,1023.75
2018-01-12T11:34:14.427Z,1023.74
2018-01-12T11:35:14.449Z,1023.73
2018-01-12T11:36:14.462Z,1023.75
2018-01-12T11:37:14.471Z,1023.76
2018-01-12T11:38:14.485Z,1023.7
2018-01-12T11:39:14.500Z,1023.71
2018-01-12T11:40:14.514Z,1023.7
2018-01-12T11:41:14.535Z,1023.72
2018-01-12T11:43:14.557Z,1023.69
2018-01-12T11:44:14.572Z,1023.72
2018-01-12T11:45:14.586Z,1023.73
2018-01-12T11:46:14.608Z,1023.72
2018-01-12T11:47:14.617Z,1023.76
2018-01-12T11:48:14.636Z,1023.73
2018-01-12T11:49:14.659Z,1023.72
2018-01-12T11:50:14.663Z,1023.72
2018-01-12T11:51:14.673Z,1023.72
2018-01-12T11:52:14.687Z,1023.75
2018-01-12T11:53:14.702Z,1023.71
2018-01-12T11:54:14.717Z,1023.7
2018-01-12T11:55:14.733Z,1023.73
2018-01-12T11:56:14.747Z,1023.65
2018-01-12T11:58:14.777Z,1023.66
2018-01-12T11:59:14.790Z,1023.66
2018-01-12T12:00:14.806Z,1023.68
2018-01-12T12:01:14.819Z,1023.7
2018-01-12T12:02:14.851Z,1023.7
2018-01-12T12:03:14.849Z,1023.71
2018-01-12T12:04:14.863Z,1023.65
2018-01-12T12:05:14.983Z,1023.69
2018-01-12T12:06:14.897Z,1023.73
2018-01-12T12:07:14.913Z,1023.68
2018-01-12T12:08:14.920Z,1023.68
2018-01-12T12:09:14.942Z,1023.75
2018-01-12T12:10:14.954Z,1023.74
2018-01-12T12:11:14.964Z,1023.74
2018-01-12T12:12:14.986Z,1023.72
2018-01-12T12:13:15.000Z,1023.75
2018-01-12T12:14:15.007Z,1023.75
2018-01-12T12:15:15.029Z,1023.73
2018-01-12T12:16:15.038Z,1023.69
2018-01-12T12:17:15.050Z,1023.77
2018-01-12T12:18:15.065Z,1023.74
2018-01-12T12:19:15.082Z,1023.75
2018-01-12T12:20:15.094Z,1023.72
2018-01-12T12:21:15.107Z,1023.71
2018-01-12T12:22:15.128Z,1023.75
2018-01-12T12:23:15.137Z,1023.71
2018-01-12T12:24:15.151Z,1023.76
2018-01-12T12:25:15.171Z,1023.76
2018-01-12T12:26:15.187Z,1023.75
2018-01-12T12:27:15.200Z,1023.69
2018-01-12T12:28:15.209Z,1023.78
2018-01-12T12:30:15.244Z,1023.71
2018-01-12T12:31:15.252Z,1023.76
2018-01-12T12:32:15.266Z,1023.74
2018-01-12T12:33:15.280Z,1023.74
2018-01-12T12:34:15.301Z,1023.74
2018-01-12T12:35:15.313Z,1023.73
2018-01-12T12:36:15.324Z,1023.73
2018-01-12T12:37:15.338Z,1023.75
2018-01-12T12:38:15.360Z,1023.74
2018-01-12T12:39:15.366Z,1023.73
2018-01-12T12:40:15.388Z,1023.74
2018-01-12T12:41:15.396Z,1023.73
2018-01-12T12:42:15.411Z,1023.71
2018-01-12T12:43:15.430Z,1023.73
2018-01-12T12:44:15.438Z,1023.7
2018-01-12T12:46:15.468Z,1023.72
2018-01-12T12:47:15.482Z,1023.73
2018-01-12T12:48:15.497Z,1023.74